Time;durP1;ratioP1;P1;durP2;ratioP2;P2;SDS_P1;SDS_P2;PMS_P1;PMS_P2;Temp;Humidity;BMP_temperature;BMP_pressure;BME280_temperature;BME280_humidity;BME280_pressure;Samples;Min_cycle;Max_cycle;Signal;HPM_P1;HPM_P2
2023/04/26 00:00:21;;;;;;;6.70;1.60;;;4.50;99.90;;;;;;4993795;28;20603;-81
2023/04/26 00:02:47;;;;;;;5.60;1.40;;;4.40;99.90;;;;;;4993946;28;20619;-81
2023/04/26 00:05:15;;;;;;;5.03;1.40;;;4.40;99.90;;;;;;4994021;28;20169;-81
2023/04/26 00:07:41;;;;;;;6.70;1.30;;;4.40;99.90;;;;;;4992399;28;20251;-81
2023/04/26 00:10:09;;;;;;;8.20;1.43;;;4.50;99.90;;;;;;4994000;28;20184;-82
2023/04/26 00:12:35;;;;;;;8.27;1.57;;;4.50;99.90;;;;;;4993366;28;20215;-81
2023/04/26 00:15:02;;;;;;;9.27;1.60;;;4.50;99.90;;;;;;4992668;28;20231;-80
2023/04/26 00:17:28;;;;;;;3.23;1.17;;;4.50;99.90;;;;;;4993807;28;20179;-82
2023/04/26 00:19:56;;;;;;;5.77;1.43;;;4.40;99.90;;;;;;4993662;28;20176;-81
2023/04/26 00:22:23;;;;;;;7.50;1.27;;;4.40;99.90;;;;;;4993339;28;20178;-82
2023/04/26 00:24:48;;;;;;;7.80;1.57;;;4.40;99.90;;;;;;4992029;28;20207;-81
2023/04/26 00:27:15;;;;;;;7.77;2.00;;;4.30;99.90;;;;;;4995563;28;20654;-81
2023/04/26 00:29:41;;;;;;;6.03;1.50;;;4.40;99.90;;;;;;4996032;28;20629;-83
2023/04/26 00:32:06;;;;;;;9.53;1.63;;;4.30;99.90;;;;;;4997150;28;20183;-82
2023/04/26 00:34:36;;;;;;;6.33;1.60;;;4.30;99.90;;;;;;4995930;28;20278;-82
2023/04/26 00:37:03;;;;;;;6.90;1.73;;;4.20;99.90;;;;;;4997136;28;20191;-81
2023/04/26 00:39:29;;;;;;;2.93;1.43;;;4.30;99.90;;;;;;4997089;28;20179;-81
2023/04/26 00:41:56;;;;;;;7.97;1.33;;;4.30;99.90;;;;;;4996698;28;20255;-81
2023/04/26 00:44:21;;;;;;;8.77;1.80;;;4.30;99.90;;;;;;4997003;28;20521;-83
2023/04/26 00:46:52;;;;;;;5.87;1.47;;;4.30;99.90;;;;;;4996967;28;20210;-81
2023/04/26 00:49:20;;;;;;;5.33;1.73;;;4.20;99.90;;;;;;4996934;28;20172;-82
2023/04/26 00:51:47;;;;;;;6.73;1.90;;;4.30;99.90;;;;;;4996839;28;20598;-84
2023/04/26 00:54:14;;;;;;;13.57;1.80;;;4.30;99.90;;;;;;4996735;28;20215;-82
2023/04/26 00:56:41;;;;;;;7.90;1.40;;;4.20;99.90;;;;;;4996610;28;20180;-80
2023/04/26 00:59:07;;;;;;;9.60;1.57;;;4.20;99.90;;;;;;4996754;28;20182;-83
2023/04/26 01:01:34;;;;;;;8.10;1.83;;;4.20;99.90;;;;;;4996703;28;20180;-82
2023/04/26 01:04:00;;;;;;;7.67;1.60;;;4.20;99.90;;;;;;4996662;28;20175;-82
2023/04/26 01:06:31;;;;;;;5.67;1.63;;;4.10;99.90;;;;;;4996640;28;20206;-81
2023/04/26 01:09:04;;;;;;;6.70;1.93;;;4.10;99.90;;;;;;4996488;28;20227;-81
2023/04/26 01:11:31;;;;;;;7.80;1.87;;;4.20;99.90;;;;;;4996327;28;20190;-81
2023/04/26 01:13:57;;;;;;;6.03;1.57;;;4.10;99.90;;;;;;4996555;28;20168;-85
2023/04/26 01:16:24;;;;;;;5.43;1.80;;;4.10;99.90;;;;;;4996477;28;20172;-80
2023/04/26 01:18:53;;;;;;;7.23;1.60;;;4.10;99.90;;;;;;4996405;28;20176;-81
2023/04/26 01:21:21;;;;;;;3.97;1.30;;;4.00;99.90;;;;;;4994976;28;20176;-80
2023/04/26 01:23:50;;;;;;;7.33;1.63;;;4.00;99.90;;;;;;4996274;28;20172;-86
2023/04/26 01:26:16;;;;;;;5.33;1.90;;;3.90;99.90;;;;;;4995424;28;20228;-81
2023/04/26 01:28:42;;;;;;;6.80;1.90;;;4.00;99.90;;;;;;4995010;28;20195;-83
2023/04/26 01:31:07;;;;;;;6.77;2.20;;;4.00;99.90;;;;;;4996106;28;20172;-82
2023/04/26 01:33:33;;;;;;;9.40;1.57;;;4.00;99.90;;;;;;4995910;28;20257;-82
2023/04/26 01:35:59;;;;;;;5.30;1.53;;;4.00;99.90;;;;;;4996160;28;20207;-80
2023/04/26 01:38:25;;;;;;;4.50;1.97;;;3.90;99.90;;;;;;4994238;28;20179;-81
2023/04/26 01:40:50;;;;;;;8.17;2.10;;;3.90;99.90;;;;;;4995726;28;20195;-81
2023/04/26 01:43:19;;;;;;;7.63;1.73;;;3.90;99.90;;;;;;4994611;28;20175;-82
2023/04/26 01:45:47;;;;;;;10.27;2.27;;;3.90;99.90;;;;;;4994640;28;20219;-81
2023/04/26 01:48:13;;;;;;;5.33;1.93;;;3.90;99.90;;;;;;4996103;28;20204;-80
2023/04/26 01:50:39;;;;;;;8.97;1.80;;;3.80;99.90;;;;;;4994717;28;20246;-83
2023/04/26 01:53:05;;;;;;;6.33;1.90;;;3.80;99.90;;;;;;4995680;28;20214;-85
2023/04/26 01:55:30;;;;;;;6.87;2.10;;;3.80;99.90;;;;;;4994811;28;20192;-81
2023/04/26 01:57:56;;;;;;;7.00;1.77;;;3.80;99.90;;;;;;4995667;28;20175;-85
2023/04/26 02:00:22;;;;;;;4.47;1.80;;;3.80;99.90;;;;;;4995787;28;20187;-85
2023/04/26 02:02:48;;;;;;;9.20;2.00;;;3.80;99.90;;;;;;4995825;28;20200;-85
2023/04/26 02:05:14;;;;;;;8.90;2.20;;;3.70;99.90;;;;;;4995755;28;20637;-85
2023/04/26 02:07:40;;;;;;;7.50;2.10;;;3.70;99.90;;;;;;4995901;28;20207;-84
2023/04/26 02:10:06;;;;;;;5.17;2.00;;;3.70;99.90;;;;;;4995685;28;20179;-82
2023/04/26 02:12:32;;;;;;;4.93;2.00;;;3.60;99.90;;;;;;4995473;28;20180;-86
2023/04/26 02:14:58;;;;;;;9.83;2.63;;;3.60;99.90;;;;;;4994512;28;20211;-84
2023/04/26 02:17:25;;;;;;;9.63;2.07;;;3.60;99.90;;;;;;4995516;28;20230;-86
2023/04/26 02:19:51;;;;;;;4.13;1.80;;;3.60;99.90;;;;;;4995514;28;20172;-86
2023/04/26 02:22:16;;;;;;;9.67;2.03;;;3.60;99.90;;;;;;4995585;28;20168;-83
2023/04/26 02:24:42;;;;;;;12.00;2.27;;;3.60;99.90;;;;;;4993947;28;20532;-82
2023/04/26 02:27:08;;;;;;;9.07;2.03;;;3.60;99.90;;;;;;4995325;28;20199;-81
2023/04/26 02:29:35;;;;;;;7.80;2.40;;;3.60;99.90;;;;;;4995442;28;20180;-84
2023/04/26 02:32:01;;;;;;;4.67;1.80;;;3.50;99.90;;;;;;5448623;23;20231;-84
2023/04/26 02:34:27;;;;;;;12.43;2.33;;;3.60;99.90;;;;;;5015775;28;20187;-86
2023/04/26 02:36:53;;;;;;;7.77;2.47;;;3.50;99.90;;;;;;4998429;28;20179;-83
2023/04/26 02:39:19;;;;;;;12.53;2.50;;;3.50;99.90;;;;;;5015582;28;20277;-84
2023/04/26 02:41:45;;;;;;;13.00;2.70;;;3.50;99.90;;;;;;4997830;28;20630;-85
2023/04/26 02:44:14;;;;;;;9.20;2.50;;;3.50;99.90;;;;;;4997899;28;20720;-84
2023/04/26 02:46:40;;;;;;;11.73;2.50;;;3.40;99.90;;;;;;4998005;28;20210;-85
2023/04/26 02:49:06;;;;;;;11.97;3.13;;;3.40;99.90;;;;;;4996619;28;20183;-84
2023/04/26 02:51:32;;;;;;;6.57;2.43;;;3.40;99.90;;;;;;4997722;28;20186;-85
2023/04/26 02:53:59;;;;;;;8.77;2.70;;;3.40;99.90;;;;;;4997643;28;20265;-87
2023/04/26 02:56:24;;;;;;;6.33;2.17;;;3.40;99.90;;;;;;4997992;28;20171;-85
2023/04/26 02:58:50;;;;;;;9.60;2.67;;;3.40;99.90;;;;;;4998019;28;20205;-85
2023/04/26 03:01:17;;;;;;;8.20;2.57;;;3.40;99.90;;;;;;4997856;28;20175;-85
2023/04/26 03:03:43;;;;;;;17.80;3.07;;;3.30;99.90;;;;;;5014680;28;20179;-84
2023/04/26 03:06:09;;;;;;;14.33;3.00;;;3.30;99.90;;;;;;4997899;28;20183;-85
2023/04/26 03:08:35;;;;;;;10.30;2.33;;;3.30;99.90;;;;;;4997779;28;20183;-84
2023/04/26 03:11:01;;;;;;;8.70;2.00;;;3.30;99.90;;;;;;4997796;28;20194;-86
2023/04/26 03:13:27;;;;;;;6.43;2.77;;;3.30;99.90;;;;;;4997777;28;20229;-86
2023/04/26 03:15:53;;;;;;;9.80;2.70;;;3.40;99.90;;;;;;5014960;28;20163;-84
2023/04/26 03:18:19;;;;;;;6.47;2.27;;;3.30;99.90;;;;;;4997298;28;20647;-85
2023/04/26 03:20:47;;;;;;;8.10;2.70;;;3.40;99.90;;;;;;5015040;28;20174;-85
2023/04/26 03:23:13;;;;;;;8.20;2.60;;;3.30;99.90;;;;;;4997395;28;20290;-85
2023/04/26 03:25:40;;;;;;;8.40;2.60;;;3.30;99.90;;;;;;4997194;28;20250;-84
2023/04/26 03:28:05;;;;;;;11.30;3.17;;;3.30;99.90;;;;;;4997349;28;20206;-85
2023/04/26 03:30:31;;;;;;;11.30;2.77;;;3.30;99.90;;;;;;4997383;28;20530;-84
2023/04/26 03:32:57;;;;;;;7.97;2.57;;;3.30;99.90;;;;;;4983158;28;20268;-85
2023/04/26 03:35:23;;;;;;;9.73;2.47;;;3.30;99.90;;;;;;4974481;28;20181;-84
2023/04/26 03:37:48;;;;;;;9.57;2.97;;;3.40;99.90;;;;;;4974806;28;20180;-85
2023/04/26 03:40:15;;;;;;;11.63;2.60;;;3.40;99.90;;;;;;4974540;28;20254;-85
2023/04/26 03:42:41;;;;;;;10.87;2.70;;;3.40;99.90;;;;;;4974654;28;20180;-84
2023/04/26 03:45:07;;;;;;;8.43;2.90;;;3.40;99.90;;;;;;4975771;28;20516;-85
2023/04/26 03:47:33;;;;;;;7.27;2.53;;;3.40;99.90;;;;;;4974339;28;20735;-84
2023/04/26 03:49:59;;;;;;;8.10;2.83;;;3.40;99.90;;;;;;4974715;28;20176;-85
2023/04/26 03:52:25;;;;;;;8.03;2.73;;;3.40;99.90;;;;;;4974517;28;20180;-86
2023/04/26 03:54:52;;;;;;;9.87;2.73;;;3.40;99.90;;;;;;4974741;28;20204;-84
2023/04/26 03:57:17;;;;;;;10.67;2.50;;;3.40;99.90;;;;;;4974801;28;20343;-84
2023/04/26 03:59:43;;;;;;;14.83;3.23;;;3.40;99.90;;;;;;4974480;28;20272;-84
2023/04/26 04:02:09;;;;;;;10.13;2.93;;;3.40;99.90;;;;;;4978328;28;20684;-84
2023/04/26 04:04:36;;;;;;;7.80;2.70;;;3.40;99.90;;;;;;4978351;28;20251;-85
2023/04/26 04:07:01;;;;;;;10.87;2.97;;;3.50;99.90;;;;;;4978556;28;20673;-84
2023/04/26 04:09:27;;;;;;;11.40;3.10;;;3.50;99.90;;;;;;4979601;28;20582;-85
2023/04/26 04:11:53;;;;;;;10.20;2.70;;;3.50;99.90;;;;;;4978192;28;20185;-86
2023/04/26 04:14:20;;;;;;;14.40;2.60;;;3.50;99.90;;;;;;4978315;28;20608;-85
2023/04/26 04:16:46;;;;;;;7.17;2.67;;;3.60;99.90;;;;;;4978093;28;20176;-85
2023/04/26 04:19:11;;;;;;;10.67;2.47;;;3.60;99.90;;;;;;4977693;28;20235;-85
2023/04/26 04:21:39;;;;;;;9.20;2.70;;;3.60;99.90;;;;;;4977780;28;20181;-86
2023/04/26 04:24:05;;;;;;;8.33;2.67;;;3.60;99.90;;;;;;4977649;28;20172;-86
2023/04/26 04:26:30;;;;;;;13.87;3.60;;;3.60;99.90;;;;;;4977237;28;20215;-86
2023/04/26 04:28:57;;;;;;;6.97;2.50;;;3.60;99.90;;;;;;4978056;28;20181;-86
2023/04/26 04:31:23;;;;;;;6.67;2.87;;;3.60;99.90;;;;;;4978010;28;20181;-86
2023/04/26 04:33:49;;;;;;;7.63;3.03;;;3.60;99.90;;;;;;4993708;28;20236;-86
2023/04/26 04:36:17;;;;;;;8.83;2.63;;;3.70;99.90;;;;;;4977700;28;20637;-85
2023/04/26 04:38:44;;;;;;;6.73;2.97;;;3.70;99.90;;;;;;4977608;28;20562;-85
2023/04/26 04:41:12;;;;;;;9.43;2.97;;;3.70;99.90;;;;;;4977958;28;20262;-85
2023/04/26 04:43:40;;;;;;;11.17;2.60;;;3.70;99.90;;;;;;4977809;28;20183;-87
2023/04/26 04:46:11;;;;;;;9.17;2.87;;;3.80;99.90;;;;;;4977694;28;20180;-87
2023/04/26 04:48:37;;;;;;;11.83;2.80;;;3.80;99.90;;;;;;4977861;28;20184;-86
2023/04/26 04:51:03;;;;;;;10.07;3.13;;;3.80;99.90;;;;;;4977400;28;20519;-85
2023/04/26 04:53:29;;;;;;;9.43;2.80;;;3.80;99.90;;;;;;4977067;28;20324;-86
2023/04/26 04:55:55;;;;;;;12.93;3.13;;;3.80;99.90;;;;;;4979088;28;20196;-86
2023/04/26 04:58:21;;;;;;;11.97;3.53;;;3.80;99.90;;;;;;4977263;28;20176;-85
2023/04/26 05:00:47;;;;;;;9.90;3.00;;;3.90;99.90;;;;;;4977974;28;20651;-84
2023/04/26 05:03:13;;;;;;;12.27;3.43;;;3.90;99.90;;;;;;4987967;28;20183;-86
2023/04/26 05:05:39;;;;;;;9.77;3.67;;;3.90;99.90;;;;;;4996974;28;20283;-86
2023/04/26 05:08:06;;;;;;;9.93;2.90;;;3.90;99.90;;;;;;4996631;28;20302;-86
2023/04/26 05:10:33;;;;;;;9.50;3.17;;;3.90;99.90;;;;;;4996827;28;20176;-86
2023/04/26 05:12:59;;;;;;;12.13;2.93;;;3.90;99.90;;;;;;4995318;28;20188;-86
2023/04/26 05:15:26;;;;;;;12.73;3.27;;;4.00;99.90;;;;;;4996761;28;20593;-85
2023/04/26 05:17:54;;;;;;;11.57;3.30;;;4.00;99.90;;;;;;4996482;28;20176;-85
2023/04/26 05:20:20;;;;;;;12.97;3.40;;;4.10;99.90;;;;;;4995798;28;20640;-84
2023/04/26 05:22:46;;;;;;;9.17;3.00;;;4.10;99.90;;;;;;4996343;28;20179;-85
2023/04/26 05:25:12;;;;;;;11.13;3.20;;;4.20;99.90;;;;;;4995993;28;20232;-85
2023/04/26 05:27:38;;;;;;;8.23;2.87;;;4.20;99.90;;;;;;4996542;28;20875;-86
2023/04/26 05:30:07;;;;;;;12.40;3.80;;;4.20;99.90;;;;;;4996469;28;20196;-86
2023/04/26 05:32:32;;;;;;;12.87;3.30;;;4.30;99.90;;;;;;4988487;28;20793;-86
2023/04/26 05:34:58;;;;;;;9.17;2.93;;;4.40;99.90;;;;;;4977208;28;20304;-85
2023/04/26 05:37:24;;;;;;;15.23;3.50;;;4.40;99.90;;;;;;4976777;28;20173;-85
2023/04/26 05:39:50;;;;;;;7.90;3.00;;;4.50;99.90;;;;;;4976645;28;20181;-85
2023/04/26 05:42:16;;;;;;;8.80;3.33;;;4.50;99.90;;;;;;4976424;28;20193;-84
2023/04/26 05:44:42;;;;;;;10.60;3.57;;;4.60;99.90;;;;;;4989095;28;20230;-86
2023/04/26 05:47:08;;;;;;;11.23;2.97;;;4.60;99.90;;;;;;4996152;28;20246;-85
2023/04/26 05:49:34;;;;;;;10.17;2.83;;;4.70;99.90;;;;;;4995705;28;20187;-85
2023/04/26 05:52:00;;;;;;;7.90;3.00;;;4.70;99.90;;;;;;4995933;28;20258;-86
2023/04/26 05:54:26;;;;;;;10.27;3.03;;;4.70;99.90;;;;;;4995828;28;20215;-86
2023/04/26 05:56:52;;;;;;;11.93;2.97;;;4.70;99.90;;;;;;4978497;28;20176;-84
2023/04/26 05:59:18;;;;;;;11.03;2.70;;;4.80;99.90;;;;;;4976588;28;20180;-86
2023/04/26 06:01:44;;;;;;;8.20;3.07;;;4.70;99.90;;;;;;4977183;28;20273;-86
2023/04/26 06:04:09;;;;;;;6.97;3.03;;;4.70;99.90;;;;;;4976163;28;20188;-86
2023/04/26 06:06:35;;;;;;;17.93;3.23;;;4.80;99.90;;;;;;4983092;28;20294;-85
2023/04/26 06:09:01;;;;;;;11.37;3.43;;;4.90;99.90;;;;;;4995090;28;20180;-85
2023/04/26 06:11:27;;;;;;;7.50;3.07;;;5.10;99.90;;;;;;4995704;28;20191;-86
2023/04/26 06:13:53;;;;;;;11.73;3.00;;;5.30;99.90;;;;;;4995739;28;20187;-87
2023/04/26 06:16:21;;;;;;;12.03;3.43;;;5.50;99.90;;;;;;4995448;28;20554;-87
2023/04/26 06:18:47;;;;;;;16.47;3.23;;;5.70;99.90;;;;;;4995575;28;20179;-86
2023/04/26 06:21:12;;;;;;;10.27;2.90;;;6.00;99.90;;;;;;4980028;28;20210;-87
2023/04/26 06:23:38;;;;;;;7.10;2.90;;;6.20;99.90;;;;;;4975325;28;20181;-87
2023/04/26 06:26:12;;;;;;;8.47;3.43;;;6.30;99.90;;;;;;4975881;28;20181;-87
2023/04/26 06:28:38;;;;;;;9.07;2.80;;;6.20;99.90;;;;;;4975866;28;20519;-86
2023/04/26 06:31:03;;;;;;;9.53;3.17;;;6.20;99.90;;;;;;4975838;28;20279;-87
2023/04/26 06:33:29;;;;;;;9.43;2.90;;;6.30;99.90;;;;;;5004513;28;20735;-87
2023/04/26 06:35:55;;;;;;;9.20;2.60;;;6.30;99.90;;;;;;4998340;28;20222;-88
2023/04/26 06:38:20;;;;;;;9.43;3.27;;;6.20;99.90;;;;;;4998208;28;20234;-86
2023/04/26 06:40:46;;;;;;;7.87;2.80;;;6.20;99.90;;;;;;4998223;28;20702;-87
2023/04/26 06:43:12;;;;;;;12.90;3.00;;;6.20;99.90;;;;;;4998208;28;20175;-86
2023/04/26 06:45:37;;;;;;;9.43;2.47;;;6.30;99.90;;;;;;4998235;28;20180;-87
2023/04/26 06:48:05;;;;;;;6.13;2.83;;;6.40;99.90;;;;;;4998393;28;20232;-87
2023/04/26 06:50:31;;;;;;;8.60;3.00;;;6.30;99.90;;;;;;5015722;28;20213;-88
2023/04/26 06:52:56;;;;;;;10.33;3.07;;;6.30;99.90;;;;;;4998337;28;20274;-86
2023/04/26 06:55:22;;;;;;;9.53;3.17;;;6.30;99.90;;;;;;4979782;28;20270;-88
2023/04/26 06:57:55;;;;;;;10.97;3.17;;;6.30;99.90;;;;;;4994903;28;20183;-88
2023/04/26 07:00:21;;;;;;;6.93;2.53;;;6.50;99.90;;;;;;4978524;28;20226;-86
2023/04/26 07:02:47;;;;;;;10.17;3.57;;;6.50;99.90;;;;;;4978608;28;20278;-87
2023/04/26 07:05:14;;;;;;;5.93;2.27;;;6.50;99.90;;;;;;4996051;28;20179;-87
2023/04/26 07:07:41;;;;;;;10.77;3.20;;;6.60;99.90;;;;;;4978350;28;20219;-86
2023/04/26 07:10:08;;;;;;;6.93;2.90;;;6.60;99.90;;;;;;4978325;28;20658;-86
2023/04/26 07:12:34;;;;;;;8.83;2.93;;;6.70;99.90;;;;;;4995776;28;20246;-86
2023/04/26 07:15:00;;;;;;;9.57;2.80;;;6.90;99.90;;;;;;4978259;28;20191;-86
2023/04/26 07:17:26;;;;;;;6.07;2.47;;;6.90;99.90;;;;;;4978195;28;20210;-89
2023/04/26 07:19:52;;;;;;;13.97;3.03;;;7.00;99.90;;;;;;4978234;28;20184;-87
2023/04/26 07:22:38;;;;;;;9.40;3.13;;;7.00;99.90;;;;;;5112976;27;20554;-86
2023/04/26 07:25:04;;;;;;;8.13;2.17;;;7.00;99.90;;;;;;5108302;28;20193;-87
2023/04/26 07:27:32;;;;;;;6.10;2.37;;;7.10;99.90;;;;;;5108336;28;20180;-88
2023/04/26 07:29:58;;;;;;;13.87;2.57;;;7.10;99.90;;;;;;5108440;28;20237;-87
2023/04/26 07:32:24;;;;;;;12.17;3.73;;;7.00;99.90;;;;;;5091007;28;20180;-87
2023/04/26 07:34:50;;;;;;;10.03;2.40;;;7.00;99.90;;;;;;5092251;28;20169;-86
2023/04/26 07:37:15;;;;;;;8.67;2.40;;;7.10;99.90;;;;;;5092291;28;20184;-86
2023/04/26 07:39:41;;;;;;;12.67;2.63;;;7.10;99.90;;;;;;5107574;28;20172;-83
2023/04/26 07:42:07;;;;;;;8.03;2.53;;;7.10;99.90;;;;;;5107742;28;20204;-86
2023/04/26 07:44:32;;;;;;;10.93;3.37;;;7.00;99.90;;;;;;5107665;28;20256;-85
2023/04/26 07:46:58;;;;;;;10.27;3.10;;;7.00;99.90;;;;;;5107659;28;20176;-87
2023/04/26 07:49:24;;;;;;;9.10;2.83;;;7.00;99.90;;;;;;5090714;28;20172;-86
2023/04/26 07:51:50;;;;;;;9.30;2.60;;;7.20;99.90;;;;;;5107824;28;20221;-85
2023/04/26 07:54:16;;;;;;;11.40;3.23;;;7.20;99.90;;;;;;5107377;28;20275;-85
2023/04/26 07:56:48;;;;;;;12.93;3.27;;;7.40;99.90;;;;;;5107544;28;20212;-84
2023/04/26 07:59:14;;;;;;;13.97;2.43;;;7.60;99.90;;;;;;5092726;28;20177;-85
2023/04/26 08:01:40;;;;;;;14.10;3.63;;;8.00;99.90;;;;;;5090320;28;20216;-84
2023/04/26 08:04:06;;;;;;;5.33;2.40;;;8.20;99.90;;;;;;5107493;28;20193;-85
2023/04/26 08:06:32;;;;;;;10.10;2.40;;;8.40;99.90;;;;;;5107583;28;20188;-86
2023/04/26 08:08:58;;;;;;;5.20;2.57;;;8.20;99.90;;;;;;5107087;28;20260;-85
2023/04/26 08:11:24;;;;;;;6.60;1.93;;;8.20;99.90;;;;;;5091670;28;20248;-87
2023/04/26 08:13:49;;;;;;;5.90;2.13;;;8.30;99.90;;;;;;5107276;28;20607;-87
2023/04/26 08:16:15;;;;;;;7.07;1.87;;;8.40;99.90;;;;;;5107393;28;20216;-88
2023/04/26 08:18:41;;;;;;;7.67;1.63;;;8.70;99.90;;;;;;5107524;28;20177;-86
2023/04/26 08:21:07;;;;;;;14.03;2.10;;;8.70;99.90;;;;;;5106351;28;20243;-85
2023/04/26 08:23:35;;;;;;;9.07;2.67;;;8.50;99.90;;;;;;5090015;28;20192;-86
2023/04/26 08:26:01;;;;;;;7.60;2.30;;;8.20;99.90;;;;;;5090043;28;20615;-85
2023/04/26 08:28:27;;;;;;;4.93;1.80;;;8.00;99.90;;;;;;5090857;28;20181;-85
2023/04/26 08:30:54;;;;;;;4.13;1.50;;;8.00;99.90;;;;;;5091437;28;20260;-84
2023/04/26 08:33:19;;;;;;;4.37;1.80;;;8.20;99.90;;;;;;5081019;28;20188;-84
2023/04/26 08:35:46;;;;;;;5.83;2.00;;;8.30;99.90;;;;;;5075917;28;20177;-85
2023/04/26 08:38:14;;;;;;;6.53;1.70;;;8.30;99.90;;;;;;5076424;28;20276;-85
2023/04/26 08:40:42;;;;;;;6.37;1.50;;;8.70;99.90;;;;;;5076421;28;20296;-85
2023/04/26 08:43:09;;;;;;;11.57;2.13;;;8.90;99.90;;;;;;5076163;28;20223;-84
2023/04/26 08:45:40;;;;;;;7.50;1.63;;;9.00;99.90;;;;;;5076366;28;20177;-85
2023/04/26 08:48:16;;;;;;;5.87;1.53;;;9.00;99.90;;;;;;5076210;28;20173;-85
2023/04/26 08:50:46;;;;;;;7.53;1.87;;;9.00;99.90;;;;;;5089372;28;20248;-87
2023/04/26 08:53:19;;;;;;;13.77;2.10;;;9.10;99.90;;;;;;5097231;28;20207;-87
2023/04/26 08:55:49;;;;;;;7.47;2.03;;;9.40;99.90;;;;;;5096382;28;20180;-84
2023/04/26 08:58:16;;;;;;;8.00;1.80;;;9.70;99.90;;;;;;5097425;28;20173;-86
2023/04/26 09:00:45;;;;;;;7.40;1.77;;;9.30;99.90;;;;;;5097062;28;20527;-85
2023/04/26 09:03:11;;;;;;;6.73;1.93;;;9.20;99.90;;;;;;5096129;28;20187;-86
2023/04/26 09:05:44;;;;;;;6.83;1.50;;;9.00;99.90;;;;;;5095932;28;20172;-86
2023/04/26 09:08:20;;;;;;;5.63;1.50;;;9.10;99.90;;;;;;5096208;28;20169;-86
2023/04/26 09:10:46;;;;;;;6.03;1.83;;;9.40;98.80;;;;;;5095945;28;20165;-83
2023/04/26 09:13:13;;;;;;;7.87;1.70;;;9.30;99.90;;;;;;5097332;28;20249;-86
2023/04/26 09:15:40;;;;;;;7.07;2.00;;;9.30;99.90;;;;;;5095985;28;20522;-87
2023/04/26 09:18:59;;;;;;;7.77;1.73;;;9.40;98.40;;;;;;5096007;28;20703;-89
2023/04/26 09:21:25;;;;;;;6.20;1.83;;;9.60;99.90;;;;;;5072605;28;20259;-85
2023/04/26 09:23:58;;;;;;;3.67;1.60;;;9.70;99.90;;;;;;5095610;28;20179;-85
2023/04/26 09:26:23;;;;;;;4.90;1.80;;;9.60;99.20;;;;;;5095750;28;20179;-87
2023/04/26 09:29:16;;;;;;;9.00;1.80;;;9.20;98.80;;;;;;5095667;28;20181;-87
2023/04/26 09:31:45;;;;;;;6.03;1.70;;;8.90;99.90;;;;;;5096020;28;20180;-87
2023/04/26 09:34:12;;;;;;;7.17;1.87;;;8.60;99.90;;;;;;5095428;28;20203;-86
2023/04/26 09:36:48;;;;;;;5.27;2.80;;;8.70;99.90;;;;;;5096290;28;20305;-85
2023/04/26 09:39:33;;;;;;;9.73;2.13;;;8.80;99.90;;;;;;5095153;28;20184;-86
2023/04/26 09:41:58;;;;;;;5.60;2.10;;;9.00;99.90;;;;;;5095226;28;20216;-84
2023/04/26 09:44:25;;;;;;;8.30;2.03;;;9.40;99.90;;;;;;5094622;28;20176;-85
2023/04/26 09:47:05;;;;;;;10.00;1.47;;;9.70;99.90;;;;;;5095505;28;20213;-84
2023/04/26 09:49:49;;;;;;;4.80;1.58;;;10.10;99.20;;;;;;5096402;28;20161;-86
2023/04/26 09:52:16;;;;;;;3.20;1.50;;;10.40;98.10;;;;;;5095680;28;20207;-86
2023/04/26 09:54:43;;;;;;;3.60;1.45;;;10.70;96.40;;;;;;5095252;28;20176;-86
2023/04/26 09:57:10;;;;;;;5.47;1.77;;;10.50;97.30;;;;;;5095182;28;20181;-87
2023/04/26 09:59:48;;;;;;;7.43;1.70;;;10.20;97.10;;;;;;5095327;28;20180;-86
2023/04/26 10:02:19;;;;;;;8.70;2.00;;;9.80;97.30;;;;;;5095771;28;20203;-88
2023/04/26 10:04:47;;;;;;;4.23;1.57;;;9.40;97.70;;;;;;5095296;28;20184;-85
2023/04/26 10:07:15;;;;;;;5.03;1.40;;;9.40;97.50;;;;;;5095198;28;20602;-87
2023/04/26 10:09:41;;;;;;;5.73;1.50;;;9.30;96.60;;;;;;5095127;28;20184;-87
2023/04/26 10:12:12;;;;;;;4.87;1.80;;;9.30;95.80;;;;;;5093294;28;20184;-89
2023/04/26 10:14:38;;;;;;;5.57;1.67;;;9.10;96.50;;;;;;5095099;28;20173;-88
2023/04/26 10:17:04;;;;;;;6.03;1.50;;;9.00;97.40;;;;;;5094948;28;20615;-87
2023/04/26 10:19:33;;;;;;;7.33;1.90;;;8.90;97.60;;;;;;5094898;28;20180;-88
2023/04/26 10:22:04;;;;;;;7.73;1.70;;;8.90;97.60;;;;;;5095149;28;20224;-88
2023/04/26 10:24:30;;;;;;;3.97;1.30;;;8.90;98.60;;;;;;5094859;28;20237;-87
2023/04/26 10:26:56;;;;;;;4.83;1.80;;;8.90;97.60;;;;;;5094582;28;20194;-88
2023/04/26 10:29:47;;;;;;;4.17;1.40;;;8.80;97.00;;;;;;5094337;28;20291;-89
2023/04/26 10:32:16;;;;;;;11.93;2.47;;;8.70;96.80;;;;;;5094833;28;20176;-88
2023/04/26 10:34:42;;;;;;;8.47;1.90;;;8.60;97.50;;;;;;5094887;28;20180;-87
2023/04/26 10:37:14;;;;;;;4.43;1.90;;;8.60;98.10;;;;;;5094044;28;20176;-87
2023/04/26 10:39:49;;;;;;;5.33;1.93;;;8.50;99.80;;;;;;5095428;28;20168;-88
2023/04/26 10:42:22;;;;;;;5.53;1.90;;;8.60;98.70;;;;;;5094575;28;20211;-88
2023/04/26 10:44:52;;;;;;;5.47;1.77;;;8.70;99.70;;;;;;5095626;28;20165;-87
2023/04/26 10:47:23;;;;;;;6.87;2.37;;;8.90;97.90;;;;;;5094365;28;20168;-87
2023/04/26 10:49:49;;;;;;;6.53;1.87;;;8.90;99.20;;;;;;5095264;28;20180;-88
2023/04/26 10:52:21;;;;;;;7.53;1.60;;;9.10;98.40;;;;;;5094567;28;20762;-86
2023/04/26 10:54:54;;;;;;;10.20;2.03;;;9.40;98.90;;;;;;5094943;28;20163;-89
2023/04/26 10:57:21;;;;;;;6.17;1.83;;;9.60;96.90;;;;;;5093703;28;20188;-83
2023/04/26 11:00:15;;;;;;;3.43;1.50;;;9.50;97.00;;;;;;5093965;28;20241;-90
2023/04/26 11:03:04;;;;;;;14.00;3.30;;;9.50;96.70;;;;;;5093299;28;20650;-90
2023/04/26 11:05:46;;;;;;;4.70;1.57;;;9.40;97.20;;;;;;5093623;28;20218;-91
2023/04/26 11:08:26;;;;;;;3.43;1.43;;;9.30;94.70;;;;;;5094218;28;20164;-92
2023/04/26 11:11:15;;;;;;;7.70;1.87;;;9.20;95.90;;;;;;5095419;28;20168;-90
2023/04/26 11:13:42;;;;;;;7.67;2.07;;;9.30;96.00;;;;;;5094065;28;20172;-89
2023/04/26 11:16:15;;;;;;;4.50;2.20;;;9.40;95.50;;;;;;5093617;28;20282;-89
2023/04/26 11:18:45;;;;;;;5.30;1.37;;;9.40;95.70;;;;;;5094141;28;20184;-90
2023/04/26 11:21:16;;;;;;;10.03;2.13;;;9.20;94.60;;;;;;5094266;28;20315;-89
2023/04/26 11:23:42;;;;;;;7.03;2.17;;;9.20;95.90;;;;;;5093745;28;20173;-90
2023/04/26 11:26:08;;;;;;;4.13;1.80;;;9.20;94.60;;;;;;5093701;28;20206;-89
2023/04/26 11:28:35;;;;;;;6.07;1.90;;;9.20;96.30;;;;;;5094309;28;20191;-89
2023/04/26 11:31:08;;;;;;;4.50;1.70;;;9.30;96.00;;;;;;5093628;28;20286;-90
2023/04/26 11:33:34;;;;;;;4.82;1.67;;;9.50;94.50;;;;;;5093718;28;20169;-85
2023/04/26 11:35:59;;;;;;;6.30;2.30;;;9.40;94.70;;;;;;5093464;28;20180;-89
2023/04/26 11:38:27;;;;;;;5.37;1.70;;;9.50;93.80;;;;;;5093407;28;20222;-88
2023/04/26 11:41:00;;;;;;;6.87;1.83;;;9.30;95.30;;;;;;5094972;28;20230;-89
2023/04/26 11:43:44;;;;;;;7.17;2.00;;;9.30;93.60;;;;;;5094783;28;20173;-89
2023/04/26 11:46:10;;;;;;;9.63;2.03;;;9.20;93.50;;;;;;5094747;28;20188;-88
2023/04/26 11:48:37;;;;;;;5.03;2.13;;;9.10;94.30;;;;;;5095005;28;20607;-89
2023/04/26 11:51:07;;;;;;;4.50;1.60;;;9.00;95.40;;;;;;5093319;28;20199;-86
2023/04/26 11:53:42;;;;;;;5.33;2.10;;;8.90;97.00;;;;;;5093639;28;20176;-88
2023/04/26 11:56:21;;;;;;;2.87;1.50;;;8.90;97.20;;;;;;5093221;28;20564;-89
2023/04/26 11:58:51;;;;;;;3.33;1.90;;;8.90;97.60;;;;;;5093572;28;20188;-90
2023/04/26 12:01:26;;;;;;;3.73;1.87;;;8.90;97.60;;;;;;5093466;28;20208;-88
2023/04/26 12:03:58;;;;;;;7.27;2.07;;;8.90;97.70;;;;;;5093786;28;20210;-88
2023/04/26 12:06:40;;;;;;;6.30;1.73;;;9.10;97.80;;;;;;5094530;28;20647;-88
2023/04/26 12:09:08;;;;;;;5.77;1.80;;;9.20;96.60;;;;;;5096782;28;20533;-89
2023/04/26 12:11:35;;;;;;;6.20;2.00;;;9.20;96.40;;;;;;5097203;28;20275;-87
2023/04/26 12:14:01;;;;;;;5.00;2.10;;;9.50;97.40;;;;;;5098084;28;20169;-85
2023/04/26 12:16:27;;;;;;;8.95;1.90;;;10.10;99.60;;;;;;5098238;28;20184;-87
2023/04/26 12:18:56;;;;;;;4.53;1.92;;;10.60;95.60;;;;;;5096926;28;20522;-86
2023/04/26 12:21:23;;;;;;;11.25;2.00;;;10.50;95.70;;;;;;5096211;28;20335;-86
2023/04/26 12:23:49;;;;;;;3.63;1.40;;;10.40;94.40;;;;;;5096572;28;20181;-86
2023/04/26 12:26:15;;;;;;;5.35;1.80;;;10.10;94.10;;;;;;5096728;28;20257;-87
2023/04/26 12:28:41;;;;;;;5.72;1.85;;;9.90;94.80;;;;;;5097242;28;20180;-86
2023/04/26 12:31:08;;;;;;;2.78;1.50;;;9.70;94.20;;;;;;5096716;28;20234;-85
2023/04/26 12:33:34;;;;;;;4.00;1.48;;;9.60;94.50;;;;;;5097058;28;20637;-86
2023/04/26 12:36:11;;;;;;;6.83;1.60;;;9.50;95.80;;;;;;5096732;28;20183;-87
2023/04/26 12:38:38;;;;;;;4.15;1.52;;;9.60;94.20;;;;;;5096820;28;20180;-86
2023/04/26 12:41:05;;;;;;;3.67;1.55;;;9.60;94.40;;;;;;5097725;28;20231;-87
2023/04/26 12:43:30;;;;;;;4.77;1.67;;;9.80;93.10;;;;;;5096773;28;20169;-84
2023/04/26 12:45:56;;;;;;;4.57;1.50;;;9.90;93.70;;;;;;5096548;28;20238;-86
2023/04/26 12:48:22;;;;;;;3.88;1.45;;;10.10;94.60;;;;;;5097773;28;20176;-87
2023/04/26 12:50:48;;;;;;;5.23;1.70;;;10.40;93.90;;;;;;5096141;28;20180;-87
2023/04/26 12:53:14;;;;;;;7.55;1.90;;;11.00;94.10;;;;;;5097155;28;20169;-88
2023/04/26 12:55:42;;;;;;;4.82;1.63;;;11.30;91.90;;;;;;5096502;28;20177;-88